sensor_id;sensor_type;location;lat;lon;timestamp;P1;durP1;ratioP1;P2;durP2;ratioP2
70199;SDS011;57587;55.688;37.600;2023-09-18T00:00:44;8.77;;;4.82;;
70199;SDS011;57587;55.688;37.600;2023-09-18T00:03:13;9.48;;;4.65;;
70199;SDS011;57587;55.688;37.600;2023-09-18T00:05:40;8.30;;;4.82;;
70199;SDS011;57587;55.688;37.600;2023-09-18T00:08:07;9.98;;;4.88;;
70199;SDS011;57587;55.688;37.600;2023-09-18T00:10:34;13.60;;;4.63;;
70199;SDS011;57587;55.688;37.600;2023-09-18T00:13:01;7.57;;;4.40;;
70199;SDS011;57587;55.688;37.600;2023-09-18T00:15:30;8.25;;;4.90;;
70199;SDS011;57587;55.688;37.600;2023-09-18T00:17:57;8.57;;;4.28;;
70199;SDS011;57587;55.688;37.600;2023-09-18T00:20:24;9.45;;;4.75;;
70199;SDS011;57587;55.688;37.600;2023-09-18T00:22:54;13.93;;;4.50;;
70199;SDS011;57587;55.688;37.600;2023-09-18T00:25:22;10.00;;;4.57;;
70199;SDS011;57587;55.688;37.600;2023-09-18T00:27:49;9.48;;;4.50;;
70199;SDS011;57587;55.688;37.600;2023-09-18T00:30:18;9.23;;;4.38;;
70199;SDS011;57587;55.688;37.600;2023-09-18T00:32:45;7.63;;;4.20;;
70199;SDS011;57587;55.688;37.600;2023-09-18T00:35:14;8.53;;;4.23;;
70199;SDS011;57587;55.688;37.600;2023-09-18T00:37:41;6.70;;;3.90;;
70199;SDS011;57587;55.688;37.600;2023-09-18T00:40:09;12.23;;;4.43;;
70199;SDS011;57587;55.688;37.600;2023-09-18T00:42:37;8.43;;;4.07;;
70199;SDS011;57587;55.688;37.600;2023-09-18T00:45:04;8.07;;;4.22;;
70199;SDS011;57587;55.688;37.600;2023-09-18T00:47:32;8.50;;;3.67;;
70199;SDS011;57587;55.688;37.600;2023-09-18T00:50:00;6.68;;;4.05;;
70199;SDS011;57587;55.688;37.600;2023-09-18T00:52:28;7.43;;;3.72;;
70199;SDS011;57587;55.688;37.600;2023-09-18T00:54:55;7.95;;;4.10;;
70199;SDS011;57587;55.688;37.600;2023-09-18T00:57:23;10.07;;;4.22;;
70199;SDS011;57587;55.688;37.600;2023-09-18T00:59:50;8.60;;;4.17;;
70199;SDS011;57587;55.688;37.600;2023-09-18T01:02:17;7.10;;;4.68;;
70199;SDS011;57587;55.688;37.600;2023-09-18T01:04:48;6.90;;;4.53;;
70199;SDS011;57587;55.688;37.600;2023-09-18T01:07:16;10.98;;;4.63;;
70199;SDS011;57587;55.688;37.600;2023-09-18T01:09:44;6.32;;;4.10;;
70199;SDS011;57587;55.688;37.600;2023-09-18T01:12:16;8.43;;;4.50;;
70199;SDS011;57587;55.688;37.600;2023-09-18T01:17:22;8.35;;;4.50;;
70199;SDS011;57587;55.688;37.600;2023-09-18T01:19:51;10.10;;;4.43;;
70199;SDS011;57587;55.688;37.600;2023-09-18T01:22:18;7.70;;;4.10;;
70199;SDS011;57587;55.688;37.600;2023-09-18T01:24:46;6.30;;;3.87;;
70199;SDS011;57587;55.688;37.600;2023-09-18T01:27:15;8.18;;;4.38;;
70199;SDS011;57587;55.688;37.600;2023-09-18T01:29:44;11.05;;;3.97;;
70199;SDS011;57587;55.688;37.600;2023-09-18T01:32:12;6.78;;;4.10;;
70199;SDS011;57587;55.688;37.600;2023-09-18T01:34:41;7.25;;;4.00;;
70199;SDS011;57587;55.688;37.600;2023-09-18T01:37:11;12.40;;;4.00;;
70199;SDS011;57587;55.688;37.600;2023-09-18T01:39:40;6.80;;;3.53;;
70199;SDS011;57587;55.688;37.600;2023-09-18T01:42:08;8.98;;;4.40;;
70199;SDS011;57587;55.688;37.600;2023-09-18T01:44:38;6.90;;;3.88;;
70199;SDS011;57587;55.688;37.600;2023-09-18T01:47:09;7.88;;;4.22;;
70199;SDS011;57587;55.688;37.600;2023-09-18T01:49:39;10.37;;;3.97;;
70199;SDS011;57587;55.688;37.600;2023-09-18T01:52:08;7.43;;;4.10;;
70199;SDS011;57587;55.688;37.600;2023-09-18T01:54:36;7.28;;;4.22;;
70199;SDS011;57587;55.688;37.600;2023-09-18T01:57:03;8.65;;;4.40;;
70199;SDS011;57587;55.688;37.600;2023-09-18T01:59:31;7.30;;;4.63;;
70199;SDS011;57587;55.688;37.600;2023-09-18T02:01:59;7.30;;;4.03;;
70199;SDS011;57587;55.688;37.600;2023-09-18T02:04:26;7.32;;;4.68;;
70199;SDS011;57587;55.688;37.600;2023-09-18T02:07:13;9.27;;;4.72;;
70199;SDS011;57587;55.688;37.600;2023-09-18T02:09:41;7.13;;;3.88;;
70199;SDS011;57587;55.688;37.600;2023-09-18T02:12:08;9.95;;;4.80;;
70199;SDS011;57587;55.688;37.600;2023-09-18T02:14:36;6.97;;;4.17;;
70199;SDS011;57587;55.688;37.600;2023-09-18T02:17:04;8.50;;;3.88;;
70199;SDS011;57587;55.688;37.600;2023-09-18T02:19:32;7.72;;;4.18;;
70199;SDS011;57587;55.688;37.600;2023-09-18T02:21:59;7.90;;;4.40;;
70199;SDS011;57587;55.688;37.600;2023-09-18T02:24:27;6.07;;;4.20;;
70199;SDS011;57587;55.688;37.600;2023-09-18T02:26:54;8.57;;;4.30;;
70199;SDS011;57587;55.688;37.600;2023-09-18T02:29:21;7.63;;;4.18;;
70199;SDS011;57587;55.688;37.600;2023-09-18T02:31:49;8.68;;;4.30;;
70199;SDS011;57587;55.688;37.600;2023-09-18T02:34:16;8.48;;;4.07;;
70199;SDS011;57587;55.688;37.600;2023-09-18T02:36:45;7.85;;;4.03;;
70199;SDS011;57587;55.688;37.600;2023-09-18T02:39:13;8.07;;;3.90;;
70199;SDS011;57587;55.688;37.600;2023-09-18T02:41:40;9.23;;;4.65;;
70199;SDS011;57587;55.688;37.600;2023-09-18T02:44:07;10.30;;;4.90;;
70199;SDS011;57587;55.688;37.600;2023-09-18T02:46:36;9.13;;;4.40;;
70199;SDS011;57587;55.688;37.600;2023-09-18T02:49:05;7.03;;;4.15;;
70199;SDS011;57587;55.688;37.600;2023-09-18T02:51:32;8.43;;;3.93;;
70199;SDS011;57587;55.688;37.600;2023-09-18T02:53:59;8.82;;;4.55;;
70199;SDS011;57587;55.688;37.600;2023-09-18T02:56:26;18.73;;;5.00;;
70199;SDS011;57587;55.688;37.600;2023-09-18T02:58:53;8.30;;;4.65;;
70199;SDS011;57587;55.688;37.600;2023-09-18T03:01:21;11.18;;;5.03;;
70199;SDS011;57587;55.688;37.600;2023-09-18T03:03:48;7.23;;;4.50;;
70199;SDS011;57587;55.688;37.600;2023-09-18T03:06:16;10.98;;;5.30;;
70199;SDS011;57587;55.688;37.600;2023-09-18T03:08:43;8.55;;;4.78;;
70199;SDS011;57587;55.688;37.600;2023-09-18T03:11:11;9.88;;;4.63;;
70199;SDS011;57587;55.688;37.600;2023-09-18T03:13:46;8.75;;;4.40;;
70199;SDS011;57587;55.688;37.600;2023-09-18T03:16:16;7.77;;;4.50;;
70199;SDS011;57587;55.688;37.600;2023-09-18T03:18:44;7.13;;;4.57;;
70199;SDS011;57587;55.688;37.600;2023-09-18T03:21:12;9.70;;;4.78;;
70199;SDS011;57587;55.688;37.600;2023-09-18T03:23:39;8.02;;;4.47;;
70199;SDS011;57587;55.688;37.600;2023-09-18T03:26:06;7.93;;;4.65;;
70199;SDS011;57587;55.688;37.600;2023-09-18T03:28:33;7.40;;;4.23;;
70199;SDS011;57587;55.688;37.600;2023-09-18T03:31:00;7.30;;;4.65;;
70199;SDS011;57587;55.688;37.600;2023-09-18T03:33:28;6.50;;;4.30;;
70199;SDS011;57587;55.688;37.600;2023-09-18T03:35:55;10.95;;;5.55;;
70199;SDS011;57587;55.688;37.600;2023-09-18T03:38:27;14.15;;;6.05;;
70199;SDS011;57587;55.688;37.600;2023-09-18T03:40:59;7.10;;;4.63;;
70199;SDS011;57587;55.688;37.600;2023-09-18T03:43:27;9.05;;;5.90;;
70199;SDS011;57587;55.688;37.600;2023-09-18T03:45:54;10.05;;;5.80;;
70199;SDS011;57587;55.688;37.600;2023-09-18T03:48:22;8.23;;;4.75;;
70199;SDS011;57587;55.688;37.600;2023-09-18T03:50:49;8.80;;;5.18;;
70199;SDS011;57587;55.688;37.600;2023-09-18T03:53:16;9.60;;;4.57;;
70199;SDS011;57587;55.688;37.600;2023-09-18T03:55:44;10.65;;;5.10;;
70199;SDS011;57587;55.688;37.600;2023-09-18T03:58:11;10.00;;;4.68;;
70199;SDS011;57587;55.688;37.600;2023-09-18T04:00:38;8.65;;;4.45;;
70199;SDS011;57587;55.688;37.600;2023-09-18T04:03:05;6.45;;;4.50;;
70199;SDS011;57587;55.688;37.600;2023-09-18T04:05:32;13.03;;;4.93;;
70199;SDS011;57587;55.688;37.600;2023-09-18T04:07:59;10.00;;;4.70;;
70199;SDS011;57587;55.688;37.600;2023-09-18T04:10:27;10.38;;;4.97;;
70199;SDS011;57587;55.688;37.600;2023-09-18T04:12:54;10.23;;;4.88;;
70199;SDS011;57587;55.688;37.600;2023-09-18T04:15:21;10.98;;;4.85;;
70199;SDS011;57587;55.688;37.600;2023-09-18T04:17:49;12.20;;;4.67;;
70199;SDS011;57587;55.688;37.600;2023-09-18T04:20:16;8.65;;;4.38;;
70199;SDS011;57587;55.688;37.600;2023-09-18T04:22:44;8.25;;;4.80;;
70199;SDS011;57587;55.688;37.600;2023-09-18T04:25:16;9.50;;;4.93;;
70199;SDS011;57587;55.688;37.600;2023-09-18T04:27:44;11.98;;;5.10;;
70199;SDS011;57587;55.688;37.600;2023-09-18T04:30:11;11.10;;;4.90;;
70199;SDS011;57587;55.688;37.600;2023-09-18T04:32:39;8.68;;;4.75;;
70199;SDS011;57587;55.688;37.600;2023-09-18T04:35:07;7.85;;;4.43;;
70199;SDS011;57587;55.688;37.600;2023-09-18T04:37:36;8.57;;;4.82;;
70199;SDS011;57587;55.688;37.600;2023-09-18T04:40:07;10.40;;;4.63;;
70199;SDS011;57587;55.688;37.600;2023-09-18T04:42:39;6.53;;;4.40;;
70199;SDS011;57587;55.688;37.600;2023-09-18T04:45:07;7.20;;;4.85;;
70199;SDS011;57587;55.688;37.600;2023-09-18T04:47:36;8.88;;;4.63;;
70199;SDS011;57587;55.688;37.600;2023-09-18T04:50:03;8.10;;;4.28;;
70199;SDS011;57587;55.688;37.600;2023-09-18T04:52:39;8.45;;;4.30;;
70199;SDS011;57587;55.688;37.600;2023-09-18T04:55:13;8.37;;;4.90;;
70199;SDS011;57587;55.688;37.600;2023-09-18T04:57:40;9.98;;;4.68;;
70199;SDS011;57587;55.688;37.600;2023-09-18T05:00:07;10.95;;;4.78;;
70199;SDS011;57587;55.688;37.600;2023-09-18T05:02:44;8.85;;;4.68;;
70199;SDS011;57587;55.688;37.600;2023-09-18T05:05:11;9.68;;;5.05;;
70199;SDS011;57587;55.688;37.600;2023-09-18T05:07:40;9.83;;;5.30;;
70199;SDS011;57587;55.688;37.600;2023-09-18T05:10:07;6.38;;;4.13;;
70199;SDS011;57587;55.688;37.600;2023-09-18T05:12:35;10.85;;;4.93;;
70199;SDS011;57587;55.688;37.600;2023-09-18T05:15:02;9.77;;;4.70;;
70199;SDS011;57587;55.688;37.600;2023-09-18T05:17:41;7.43;;;4.82;;
70199;SDS011;57587;55.688;37.600;2023-09-18T05:20:15;8.73;;;5.30;;
70199;SDS011;57587;55.688;37.600;2023-09-18T05:22:44;8.07;;;5.45;;
70199;SDS011;57587;55.688;37.600;2023-09-18T05:25:12;10.63;;;5.35;;
70199;SDS011;57587;55.688;37.600;2023-09-18T05:27:42;7.72;;;4.60;;
70199;SDS011;57587;55.688;37.600;2023-09-18T05:30:15;9.27;;;5.97;;
70199;SDS011;57587;55.688;37.600;2023-09-18T05:32:51;8.47;;;5.10;;
70199;SDS011;57587;55.688;37.600;2023-09-18T05:35:18;11.98;;;6.28;;
70199;SDS011;57587;55.688;37.600;2023-09-18T05:37:45;8.82;;;5.80;;
70199;SDS011;57587;55.688;37.600;2023-09-18T05:40:12;8.70;;;5.45;;
70199;SDS011;57587;55.688;37.600;2023-09-18T05:42:41;7.40;;;5.45;;
70199;SDS011;57587;55.688;37.600;2023-09-18T05:45:12;11.70;;;5.50;;
70199;SDS011;57587;55.688;37.600;2023-09-18T05:47:41;8.90;;;5.32;;
70199;SDS011;57587;55.688;37.600;2023-09-18T05:50:11;10.88;;;5.70;;
70199;SDS011;57587;55.688;37.600;2023-09-18T05:52:42;8.25;;;5.30;;
70199;SDS011;57587;55.688;37.600;2023-09-18T05:55:10;10.27;;;6.35;;
70199;SDS011;57587;55.688;37.600;2023-09-18T05:57:38;9.40;;;5.67;;
70199;SDS011;57587;55.688;37.600;2023-09-18T06:00:05;9.40;;;4.80;;
70199;SDS011;57587;55.688;37.600;2023-09-18T06:02:39;11.27;;;5.90;;
70199;SDS011;57587;55.688;37.600;2023-09-18T06:05:07;10.38;;;5.97;;
70199;SDS011;57587;55.688;37.600;2023-09-18T06:07:38;11.25;;;5.60;;
70199;SDS011;57587;55.688;37.600;2023-09-18T06:10:05;13.90;;;6.10;;
70199;SDS011;57587;55.688;37.600;2023-09-18T06:12:32;10.20;;;5.53;;
70199;SDS011;57587;55.688;37.600;2023-09-18T06:14:59;7.70;;;5.50;;
70199;SDS011;57587;55.688;37.600;2023-09-18T06:17:28;10.23;;;4.93;;
70199;SDS011;57587;55.688;37.600;2023-09-18T06:19:55;9.52;;;5.60;;
70199;SDS011;57587;55.688;37.600;2023-09-18T06:22:23;10.03;;;6.00;;
70199;SDS011;57587;55.688;37.600;2023-09-18T06:24:50;9.63;;;5.20;;
70199;SDS011;57587;55.688;37.600;2023-09-18T06:27:17;9.73;;;5.22;;
70199;SDS011;57587;55.688;37.600;2023-09-18T06:29:45;8.02;;;4.50;;
70199;SDS011;57587;55.688;37.600;2023-09-18T06:32:12;11.30;;;4.45;;
70199;SDS011;57587;55.688;37.600;2023-09-18T06:34:39;10.50;;;4.70;;
70199;SDS011;57587;55.688;37.600;2023-09-18T06:37:10;9.25;;;5.20;;
70199;SDS011;57587;55.688;37.600;2023-09-18T06:39:39;10.18;;;4.88;;
70199;SDS011;57587;55.688;37.600;2023-09-18T06:42:06;9.18;;;5.13;;
70199;SDS011;57587;55.688;37.600;2023-09-18T06:44:33;8.23;;;4.90;;
70199;SDS011;57587;55.688;37.600;2023-09-18T06:47:01;9.53;;;5.33;;
70199;SDS011;57587;55.688;37.600;2023-09-18T06:49:28;8.45;;;4.80;;
70199;SDS011;57587;55.688;37.600;2023-09-18T06:51:55;11.68;;;5.15;;
70199;SDS011;57587;55.688;37.600;2023-09-18T06:54:22;8.85;;;4.63;;
70199;SDS011;57587;55.688;37.600;2023-09-18T06:56:49;11.85;;;4.93;;
70199;SDS011;57587;55.688;37.600;2023-09-18T06:59:16;10.07;;;4.93;;
70199;SDS011;57587;55.688;37.600;2023-09-18T07:01:43;11.57;;;5.10;;
70199;SDS011;57587;55.688;37.600;2023-09-18T07:04:11;7.78;;;4.97;;
70199;SDS011;57587;55.688;37.600;2023-09-18T07:06:38;12.93;;;5.80;;
70199;SDS011;57587;55.688;37.600;2023-09-18T07:09:05;9.52;;;5.13;;
70199;SDS011;57587;55.688;37.600;2023-09-18T07:11:33;7.70;;;4.70;;
70199;SDS011;57587;55.688;37.600;2023-09-18T07:14:01;7.80;;;4.93;;
70199;SDS011;57587;55.688;37.600;2023-09-18T07:16:32;10.25;;;4.97;;
70199;SDS011;57587;55.688;37.600;2023-09-18T07:19:00;11.68;;;4.68;;
70199;SDS011;57587;55.688;37.600;2023-09-18T07:21:31;14.23;;;4.88;;
70199;SDS011;57587;55.688;37.600;2023-09-18T07:23:58;8.77;;;5.20;;
70199;SDS011;57587;55.688;37.600;2023-09-18T07:26:25;9.75;;;4.63;;
70199;SDS011;57587;55.688;37.600;2023-09-18T07:28:52;10.02;;;4.80;;
70199;SDS011;57587;55.688;37.600;2023-09-18T07:31:20;8.40;;;4.90;;
70199;SDS011;57587;55.688;37.600;2023-09-18T07:33:47;9.45;;;5.28;;
70199;SDS011;57587;55.688;37.600;2023-09-18T07:36:15;11.07;;;4.90;;
70199;SDS011;57587;55.688;37.600;2023-09-18T07:38:42;10.45;;;5.53;;
70199;SDS011;57587;55.688;37.600;2023-09-18T07:41:10;10.63;;;5.20;;
70199;SDS011;57587;55.688;37.600;2023-09-18T07:43:37;11.23;;;5.38;;
70199;SDS011;57587;55.688;37.600;2023-09-18T07:46:05;13.40;;;5.20;;
70199;SDS011;57587;55.688;37.600;2023-09-18T07:48:32;10.83;;;5.27;;
70199;SDS011;57587;55.688;37.600;2023-09-18T07:51:01;11.75;;;4.80;;
70199;SDS011;57587;55.688;37.600;2023-09-18T07:53:28;9.68;;;5.40;;
70199;SDS011;57587;55.688;37.600;2023-09-18T07:55:55;12.55;;;5.30;;
70199;SDS011;57587;55.688;37.600;2023-09-18T07:58:32;10.32;;;5.45;;
70199;SDS011;57587;55.688;37.600;2023-09-18T08:01:00;10.90;;;4.93;;
70199;SDS011;57587;55.688;37.600;2023-09-18T08:03:27;12.20;;;5.32;;
70199;SDS011;57587;55.688;37.600;2023-09-18T08:05:54;8.25;;;5.35;;
70199;SDS011;57587;55.688;37.600;2023-09-18T08:08:24;10.50;;;5.30;;
70199;SDS011;57587;55.688;37.600;2023-09-18T08:10:55;11.45;;;5.30;;
70199;SDS011;57587;55.688;37.600;2023-09-18T08:13:22;11.03;;;5.40;;
70199;SDS011;57587;55.688;37.600;2023-09-18T08:15:50;8.60;;;5.28;;
70199;SDS011;57587;55.688;37.600;2023-09-18T08:18:17;11.32;;;5.32;;
70199;SDS011;57587;55.688;37.600;2023-09-18T08:20:45;12.20;;;5.30;;
70199;SDS011;57587;55.688;37.600;2023-09-18T08:23:12;10.13;;;5.22;;
70199;SDS011;57587;55.688;37.600;2023-09-18T08:25:39;14.67;;;5.30;;
70199;SDS011;57587;55.688;37.600;2023-09-18T08:28:09;11.38;;;5.90;;
70199;SDS011;57587;55.688;37.600;2023-09-18T08:30:36;9.85;;;5.47;;
70199;SDS011;57587;55.688;37.600;2023-09-18T08:33:07;9.40;;;5.63;;
70199;SDS011;57587;55.688;37.600;2023-09-18T08:35:34;11.77;;;5.68;;
70199;SDS011;57587;55.688;37.600;2023-09-18T08:38:01;12.20;;;5.00;;
70199;SDS011;57587;55.688;37.600;2023-09-18T08:40:30;9.90;;;5.38;;
70199;SDS011;57587;55.688;37.600;2023-09-18T08:42:59;12.00;;;5.80;;
70199;SDS011;57587;55.688;37.600;2023-09-18T08:45:30;7.93;;;5.43;;
70199;SDS011;57587;55.688;37.600;2023-09-18T08:47:59;11.07;;;6.07;;
70199;SDS011;57587;55.688;37.600;2023-09-18T08:50:28;12.30;;;5.47;;
70199;SDS011;57587;55.688;37.600;2023-09-18T08:52:56;11.30;;;5.20;;
70199;SDS011;57587;55.688;37.600;2023-09-18T08:55:23;11.68;;;5.25;;
70199;SDS011;57587;55.688;37.600;2023-09-18T08:57:51;9.20;;;5.40;;
70199;SDS011;57587;55.688;37.600;2023-09-18T09:00:20;10.90;;;5.15;;
70199;SDS011;57587;55.688;37.600;2023-09-18T09:02:48;8.50;;;4.80;;
70199;SDS011;57587;55.688;37.600;2023-09-18T09:05:21;7.95;;;4.90;;
70199;SDS011;57587;55.688;37.600;2023-09-18T09:07:50;7.65;;;5.00;;
70199;SDS011;57587;55.688;37.600;2023-09-18T09:10:18;9.55;;;5.38;;
70199;SDS011;57587;55.688;37.600;2023-09-18T09:12:52;7.40;;;4.88;;
70199;SDS011;57587;55.688;37.600;2023-09-18T09:15:46;12.03;;;5.13;;
70199;SDS011;57587;55.688;37.600;2023-09-18T09:18:17;9.75;;;5.68;;
70199;SDS011;57587;55.688;37.600;2023-09-18T09:20:54;8.32;;;4.97;;
70199;SDS011;57587;55.688;37.600;2023-09-18T09:23:26;10.75;;;5.28;;
70199;SDS011;57587;55.688;37.600;2023-09-18T09:26:11;10.98;;;5.20;;
70199;SDS011;57587;55.688;37.600;2023-09-18T09:29:00;12.97;;;5.13;;
70199;SDS011;57587;55.688;37.600;2023-09-18T09:31:51;9.38;;;5.25;;
70199;SDS011;57587;55.688;37.600;2023-09-18T09:34:48;11.63;;;5.07;;
70199;SDS011;57587;55.688;37.600;2023-09-18T09:37:15;10.15;;;5.35;;
70199;SDS011;57587;55.688;37.600;2023-09-18T09:39:52;14.48;;;5.85;;
70199;SDS011;57587;55.688;37.600;2023-09-18T09:42:20;9.37;;;5.30;;
70199;SDS011;57587;55.688;37.600;2023-09-18T09:45:00;12.05;;;5.97;;
70199;SDS011;57587;55.688;37.600;2023-09-18T09:47:34;8.15;;;5.53;;
70199;SDS011;57587;55.688;37.600;2023-09-18T09:50:09;10.63;;;5.88;;
70199;SDS011;57587;55.688;37.600;2023-09-18T09:52:41;13.75;;;5.90;;
70199;SDS011;57587;55.688;37.600;2023-09-18T09:57:58;17.70;;;5.90;;
70199;SDS011;57587;55.688;37.600;2023-09-18T10:00:32;10.57;;;5.63;;
70199;SDS011;57587;55.688;37.600;2023-09-18T10:03:11;15.02;;;6.00;;
70199;SDS011;57587;55.688;37.600;2023-09-18T10:05:43;11.13;;;6.35;;
70199;SDS011;57587;55.688;37.600;2023-09-18T10:08:13;11.10;;;6.43;;
70199;SDS011;57587;55.688;37.600;2023-09-18T10:10:46;12.38;;;6.00;;
70199;SDS011;57587;55.688;37.600;2023-09-18T10:13:20;13.02;;;6.35;;
70199;SDS011;57587;55.688;37.600;2023-09-18T10:15:52;13.43;;;5.85;;
70199;SDS011;57587;55.688;37.600;2023-09-18T10:18:22;11.70;;;5.60;;
70199;SDS011;57587;55.688;37.600;2023-09-18T10:21:06;15.13;;;5.40;;
70199;SDS011;57587;55.688;37.600;2023-09-18T10:29:32;10.40;;;5.18;;
70199;SDS011;57587;55.688;37.600;2023-09-18T10:32:02;11.23;;;5.93;;
70199;SDS011;57587;55.688;37.600;2023-09-18T10:34:31;11.00;;;5.70;;
70199;SDS011;57587;55.688;37.600;2023-09-18T10:37:01;13.82;;;7.93;;
70199;SDS011;57587;55.688;37.600;2023-09-18T10:39:34;11.18;;;5.90;;
70199;SDS011;57587;55.688;37.600;2023-09-18T10:42:04;15.75;;;6.22;;
70199;SDS011;57587;55.688;37.600;2023-09-18T10:44:37;12.05;;;6.55;;
70199;SDS011;57587;55.688;37.600;2023-09-18T10:47:09;13.50;;;5.90;;
70199;SDS011;57587;55.688;37.600;2023-09-18T10:49:38;9.20;;;5.28;;
70199;SDS011;57587;55.688;37.600;2023-09-18T10:52:06;9.43;;;6.03;;
70199;SDS011;57587;55.688;37.600;2023-09-18T10:54:39;10.18;;;5.95;;
70199;SDS011;57587;55.688;37.600;2023-09-18T10:57:07;11.55;;;5.97;;
70199;SDS011;57587;55.688;37.600;2023-09-18T10:59:34;11.97;;;5.90;;
70199;SDS011;57587;55.688;37.600;2023-09-18T11:02:13;9.27;;;5.53;;
70199;SDS011;57587;55.688;37.600;2023-09-18T11:04:44;10.10;;;6.45;;
70199;SDS011;57587;55.688;37.600;2023-09-18T11:07:19;11.98;;;6.40;;
70199;SDS011;57587;55.688;37.600;2023-09-18T11:09:47;16.08;;;6.45;;
70199;SDS011;57587;55.688;37.600;2023-09-18T11:12:15;11.27;;;6.17;;
70199;SDS011;57587;55.688;37.600;2023-09-18T11:15:05;10.00;;;5.80;;
70199;SDS011;57587;55.688;37.600;2023-09-18T11:22:49;16.20;;;6.53;;
70199;SDS011;57587;55.688;37.600;2023-09-18T11:28:12;10.55;;;6.05;;
70199;SDS011;57587;55.688;37.600;2023-09-18T11:30:53;12.77;;;6.50;;
70199;SDS011;57587;55.688;37.600;2023-09-18T11:33:32;15.13;;;6.70;;
70199;SDS011;57587;55.688;37.600;2023-09-18T11:36:07;12.48;;;6.90;;
70199;SDS011;57587;55.688;37.600;2023-09-18T11:38:51;13.07;;;6.50;;
70199;SDS011;57587;55.688;37.600;2023-09-18T11:41:28;15.70;;;6.95;;
70199;SDS011;57587;55.688;37.600;2023-09-18T11:46:47;13.73;;;6.68;;
70199;SDS011;57587;55.688;37.600;2023-09-18T11:49:19;11.68;;;6.60;;
70199;SDS011;57587;55.688;37.600;2023-09-18T11:51:53;14.10;;;6.53;;
70199;SDS011;57587;55.688;37.600;2023-09-18T11:54:24;11.18;;;5.55;;
70199;SDS011;57587;55.688;37.600;2023-09-18T11:56:53;11.73;;;5.85;;
70199;SDS011;57587;55.688;37.600;2023-09-18T11:59:39;14.15;;;5.75;;
70199;SDS011;57587;55.688;37.600;2023-09-18T12:02:13;8.13;;;4.75;;
70199;SDS011;57587;55.688;37.600;2023-09-18T12:04:55;11.00;;;5.63;;
70199;SDS011;57587;55.688;37.600;2023-09-18T12:07:23;10.43;;;5.10;;
70199;SDS011;57587;55.688;37.600;2023-09-18T12:09:51;8.68;;;5.57;;
70199;SDS011;57587;55.688;37.600;2023-09-18T12:12:21;8.32;;;4.88;;
70199;SDS011;57587;55.688;37.600;2023-09-18T12:14:48;6.50;;;5.00;;
70199;SDS011;57587;55.688;37.600;2023-09-18T12:17:15;8.40;;;5.03;;
70199;SDS011;57587;55.688;37.600;2023-09-18T12:19:52;9.98;;;4.80;;
70199;SDS011;57587;55.688;37.600;2023-09-18T12:22:25;9.77;;;5.00;;
70199;SDS011;57587;55.688;37.600;2023-09-18T12:25:07;7.80;;;4.75;;
70199;SDS011;57587;55.688;37.600;2023-09-18T12:27:42;7.53;;;4.70;;
70199;SDS011;57587;55.688;37.600;2023-09-18T12:30:18;8.93;;;4.50;;
70199;SDS011;57587;55.688;37.600;2023-09-18T12:32:48;8.20;;;5.03;;
70199;SDS011;57587;55.688;37.600;2023-09-18T12:35:16;11.05;;;4.75;;
70199;SDS011;57587;55.688;37.600;2023-09-18T12:37:45;7.53;;;4.75;;
70199;SDS011;57587;55.688;37.600;2023-09-18T12:40:25;8.48;;;4.75;;
70199;SDS011;57587;55.688;37.600;2023-09-18T12:42:55;10.43;;;4.30;;
70199;SDS011;57587;55.688;37.600;2023-09-18T12:45:25;8.13;;;4.57;;
70199;SDS011;57587;55.688;37.600;2023-09-18T12:47:54;9.82;;;4.50;;
70199;SDS011;57587;55.688;37.600;2023-09-18T12:50:24;7.05;;;4.05;;
70199;SDS011;57587;55.688;37.600;2023-09-18T12:52:51;7.32;;;4.25;;
70199;SDS011;57587;55.688;37.600;2023-09-18T12:55:25;9.30;;;4.10;;
70199;SDS011;57587;55.688;37.600;2023-09-18T12:57:54;12.13;;;4.90;;
70199;SDS011;57587;55.688;37.600;2023-09-18T13:00:22;8.88;;;3.85;;
70199;SDS011;57587;55.688;37.600;2023-09-18T13:02:50;11.52;;;5.78;;
70199;SDS011;57587;55.688;37.600;2023-09-18T13:05:23;6.72;;;4.47;;
70199;SDS011;57587;55.688;37.600;2023-09-18T13:08:03;15.90;;;4.90;;
70199;SDS011;57587;55.688;37.600;2023-09-18T13:10:43;11.07;;;4.22;;
70199;SDS011;57587;55.688;37.600;2023-09-18T13:13:17;9.10;;;4.45;;
70199;SDS011;57587;55.688;37.600;2023-09-18T13:15:45;7.68;;;4.40;;
70199;SDS011;57587;55.688;37.600;2023-09-18T13:18:14;6.72;;;4.07;;
70199;SDS011;57587;55.688;37.600;2023-09-18T13:20:43;6.93;;;4.17;;
70199;SDS011;57587;55.688;37.600;2023-09-18T13:23:11;8.32;;;4.07;;
70199;SDS011;57587;55.688;37.600;2023-09-18T13:25:39;9.68;;;4.43;;
70199;SDS011;57587;55.688;37.600;2023-09-18T13:28:11;8.35;;;3.90;;
70199;SDS011;57587;55.688;37.600;2023-09-18T13:30:40;8.63;;;4.40;;
70199;SDS011;57587;55.688;37.600;2023-09-18T13:33:11;11.00;;;5.27;;
70199;SDS011;57587;55.688;37.600;2023-09-18T13:35:43;8.02;;;4.00;;
70199;SDS011;57587;55.688;37.600;2023-09-18T13:38:11;10.20;;;4.20;;
70199;SDS011;57587;55.688;37.600;2023-09-18T13:40:39;5.18;;;3.72;;
70199;SDS011;57587;55.688;37.600;2023-09-18T13:43:09;7.20;;;3.55;;
70199;SDS011;57587;55.688;37.600;2023-09-18T13:45:36;6.13;;;3.50;;
70199;SDS011;57587;55.688;37.600;2023-09-18T13:48:05;7.63;;;3.97;;
70199;SDS011;57587;55.688;37.600;2023-09-18T13:50:34;10.23;;;3.67;;
70199;SDS011;57587;55.688;37.600;2023-09-18T13:53:03;6.75;;;3.50;;
70199;SDS011;57587;55.688;37.600;2023-09-18T13:55:31;5.45;;;3.58;;
70199;SDS011;57587;55.688;37.600;2023-09-18T13:57:59;8.53;;;3.73;;
70199;SDS011;57587;55.688;37.600;2023-09-18T14:00:30;6.90;;;4.00;;
70199;SDS011;57587;55.688;37.600;2023-09-18T14:03:02;10.43;;;4.15;;
70199;SDS011;57587;55.688;37.600;2023-09-18T14:05:32;16.00;;;7.05;;
70199;SDS011;57587;55.688;37.600;2023-09-18T14:08:04;7.35;;;3.97;;
70199;SDS011;57587;55.688;37.600;2023-09-18T14:10:32;9.50;;;4.47;;
70199;SDS011;57587;55.688;37.600;2023-09-18T14:12:59;7.47;;;4.53;;
70199;SDS011;57587;55.688;37.600;2023-09-18T14:15:26;13.25;;;4.60;;
70199;SDS011;57587;55.688;37.600;2023-09-18T14:17:53;10.57;;;5.13;;
70199;SDS011;57587;55.688;37.600;2023-09-18T14:20:21;9.40;;;5.07;;
70199;SDS011;57587;55.688;37.600;2023-09-18T14:22:49;8.60;;;4.80;;
70199;SDS011;57587;55.688;37.600;2023-09-18T14:25:17;9.32;;;4.25;;
70199;SDS011;57587;55.688;37.600;2023-09-18T14:27:47;12.63;;;5.40;;
70199;SDS011;57587;55.688;37.600;2023-09-18T14:30:18;11.85;;;5.35;;
70199;SDS011;57587;55.688;37.600;2023-09-18T14:32:46;8.88;;;4.47;;
70199;SDS011;57587;55.688;37.600;2023-09-18T14:35:13;8.93;;;4.77;;
70199;SDS011;57587;55.688;37.600;2023-09-18T14:37:40;14.05;;;6.30;;
70199;SDS011;57587;55.688;37.600;2023-09-18T14:40:07;10.63;;;5.22;;
70199;SDS011;57587;55.688;37.600;2023-09-18T14:42:39;11.05;;;4.55;;
70199;SDS011;57587;55.688;37.600;2023-09-18T14:45:06;6.20;;;3.90;;
70199;SDS011;57587;55.688;37.600;2023-09-18T14:47:33;6.93;;;4.17;;
70199;SDS011;57587;55.688;37.600;2023-09-18T14:50:00;11.23;;;4.80;;
70199;SDS011;57587;55.688;37.600;2023-09-18T14:52:30;8.88;;;4.65;;
70199;SDS011;57587;55.688;37.600;2023-09-18T14:54:58;16.17;;;5.15;;
70199;SDS011;57587;55.688;37.600;2023-09-18T14:57:27;7.88;;;4.45;;
70199;SDS011;57587;55.688;37.600;2023-09-18T14:59:54;8.90;;;4.30;;
70199;SDS011;57587;55.688;37.600;2023-09-18T15:02:21;10.52;;;4.40;;
70199;SDS011;57587;55.688;37.600;2023-09-18T15:04:50;11.18;;;6.07;;